createdAt,value
2022-11-05T00:01:59.777Z,22.2
2022-11-05T00:06:59.760Z,22.2
2022-11-05T00:11:59.729Z,21.2
2022-11-05T00:16:59.674Z,20.9
2022-11-05T00:21:59.704Z,21.2
2022-11-05T00:27:00.177Z,21.3
2022-11-05T00:31:59.702Z,20.7
2022-11-05T00:36:59.815Z,20.7
2022-11-05T00:41:59.714Z,19.2
2022-11-05T00:47:24.287Z,20.7
2022-11-05T00:51:59.670Z,21.3
2022-11-05T00:57:04.726Z,20.7
2022-11-05T01:01:59.759Z,20.7
2022-11-05T01:06:59.655Z,21.5
2022-11-05T01:11:59.696Z,21.5
2022-11-05T01:22:50.205Z,21.5
2022-11-05T01:28:42.581Z,19.7
2022-11-05T01:31:59.779Z,19.5
2022-11-05T01:37:20.787Z,19.5
2022-11-05T01:41:59.811Z,19.5
2022-11-05T01:46:59.663Z,19.5
2022-11-05T01:52:07.257Z,19.5
2022-11-05T01:57:07.255Z,21
2022-11-05T02:02:07.427Z,21.2
2022-11-05T02:07:07.260Z,22.7
2022-11-05T02:12:07.238Z,23
2022-11-05T02:17:07.290Z,23.6
2022-11-05T02:22:07.275Z,23.6
2022-11-05T02:27:07.405Z,24.1
2022-11-05T02:32:07.272Z,24.5
2022-11-05T02:37:07.404Z,24.5
2022-11-05T02:42:07.336Z,24.5
2022-11-05T02:47:07.237Z,24.8
2022-11-05T02:52:07.300Z,24.8
2022-11-05T02:57:07.305Z,24.8
2022-11-05T03:02:07.427Z,24.8
2022-11-05T03:07:07.256Z,24.8
2022-11-05T03:12:07.304Z,24.8
2022-11-05T03:17:07.264Z,24.2
2022-11-05T03:22:07.390Z,24.2
2022-11-05T03:27:07.298Z,23.5
2022-11-05T03:32:07.349Z,23.1
2022-11-05T03:37:07.321Z,23.5
2022-11-05T03:42:07.329Z,23.5
2022-11-05T03:47:07.274Z,26
2022-11-05T03:52:07.288Z,26.9
2022-11-05T03:57:07.300Z,26
2022-11-05T04:02:07.339Z,27.7
2022-11-05T04:07:07.323Z,27.7
2022-11-05T04:12:07.281Z,27.7
2022-11-05T04:17:07.293Z,26.6
2022-11-05T04:22:07.285Z,24.8
2022-11-05T04:27:20.521Z,24.8
2022-11-05T04:33:03.273Z,26.6
2022-11-05T04:37:15.748Z,26.6
2022-11-05T04:42:07.308Z,27.3
2022-11-05T04:47:07.324Z,29.4
2022-11-05T04:52:07.304Z,29.4
2022-11-05T04:57:07.268Z,33
2022-11-05T05:02:07.369Z,33
2022-11-05T05:07:07.320Z,33.6
2022-11-05T05:12:07.330Z,33.8
2022-11-05T05:17:07.363Z,33.8
2022-11-05T05:22:07.320Z,33.8
2022-11-05T05:27:07.346Z,33.8
2022-11-05T05:32:07.419Z,33.2
2022-11-05T05:37:07.359Z,33.8
2022-11-05T05:42:07.433Z,33.8
2022-11-05T05:47:07.350Z,33.5
2022-11-05T05:52:07.361Z,33.5
2022-11-05T05:57:07.303Z,33.9
2022-11-05T06:02:07.498Z,33.9
2022-11-05T06:07:07.388Z,36.2
2022-11-05T06:12:07.362Z,36.2
2022-11-05T06:17:07.365Z,37.5
2022-11-05T06:22:07.357Z,37.7
2022-11-05T06:27:14.530Z,37.7
2022-11-05T06:32:07.286Z,37.7
2022-11-05T06:37:07.352Z,37.7
2022-11-05T06:42:18.899Z,37.7
2022-11-05T06:47:42.794Z,37
2022-11-05T06:52:07.424Z,36.9
2022-11-05T06:57:07.304Z,36.9
2022-11-05T07:02:07.366Z,36.9
2022-11-05T07:07:07.310Z,36.9
2022-11-05T07:12:07.385Z,36.9
2022-11-05T07:17:07.291Z,37.8
2022-11-05T07:22:07.361Z,40.7
2022-11-05T07:27:07.302Z,42.4
2022-11-05T07:32:40.820Z,43.1
2022-11-05T07:37:07.330Z,44.3
2022-11-05T07:42:07.331Z,44.9
2022-11-05T07:47:07.313Z,44.9
2022-11-05T07:52:07.396Z,44.3
2022-11-05T07:57:07.325Z,44.3
2022-11-05T08:02:07.516Z,44.9
2022-11-05T08:07:07.381Z,44.9
2022-11-05T08:12:07.316Z,43.2
2022-11-05T08:17:07.382Z,40.9
2022-11-05T08:22:07.299Z,40.9
2022-11-05T08:27:07.475Z,37
2022-11-05T08:32:07.425Z,36.7
2022-11-05T08:37:07.381Z,36.6
2022-11-05T08:42:07.374Z,32
2022-11-05T08:47:07.374Z,31
2022-11-05T08:52:07.383Z,28.1
2022-11-05T08:57:07.536Z,28.1
2022-11-05T09:02:07.473Z,27.9
2022-11-05T09:07:07.532Z,27.7
2022-11-05T09:12:12.854Z,27.9
2022-11-05T09:17:07.532Z,28.1
2022-11-05T09:22:07.419Z,28.9
2022-11-05T09:27:08.611Z,34.3
2022-11-05T09:32:07.643Z,34.3
2022-11-05T09:37:07.732Z,34.3
2022-11-05T09:42:07.485Z,34.3
2022-11-05T09:47:07.659Z,28.8
2022-11-05T09:52:07.380Z,28.8
2022-11-05T09:57:07.383Z,26.8
2022-11-05T10:02:07.493Z,25.8
2022-11-05T10:07:07.451Z,26.8
2022-11-05T10:12:07.434Z,26.8
2022-11-05T10:17:07.674Z,27.9
2022-11-05T10:22:07.606Z,28
2022-11-05T10:27:07.556Z,27.9
2022-11-05T10:32:07.312Z,27.9
2022-11-05T10:37:07.428Z,27.9
2022-11-05T10:42:07.334Z,22.9
2022-11-05T10:47:07.365Z,22.2
2022-11-05T10:52:07.327Z,21.8
2022-11-05T10:57:07.344Z,21.4
2022-11-05T11:02:07.658Z,21.1
2022-11-05T11:07:07.345Z,21.1
2022-11-05T11:12:07.402Z,20.2
2022-11-05T11:17:07.462Z,21.1
2022-11-05T11:22:07.417Z,20.8
2022-11-05T11:27:07.501Z,20.5
2022-11-05T11:32:07.401Z,20.8
2022-11-05T11:37:07.363Z,20.8
2022-11-05T11:42:07.406Z,20.7
2022-11-05T11:47:38.682Z,20.8
2022-11-05T11:52:07.431Z,20.8
2022-11-05T11:57:10.331Z,21.8
2022-11-05T12:02:07.539Z,22.3
2022-11-05T12:07:07.371Z,22.3
2022-11-05T12:12:07.369Z,27.2
2022-11-05T12:17:07.470Z,29.6
2022-11-05T12:22:07.408Z,29.9
2022-11-05T12:27:07.648Z,31.4
2022-11-05T12:32:07.352Z,31.4
2022-11-05T12:37:07.327Z,30.3
2022-11-05T12:42:07.551Z,29.9
2022-11-05T12:47:07.379Z,29.9
2022-11-05T12:52:07.373Z,30.3
2022-11-05T12:57:07.358Z,32.3
2022-11-05T13:02:07.444Z,30.3
2022-11-05T13:07:07.480Z,29.3
2022-11-05T13:12:07.352Z,29.3
2022-11-05T13:17:07.416Z,27.8
2022-11-05T13:22:07.439Z,26.6
2022-11-05T13:27:07.556Z,24.8
2022-11-05T13:32:20.154Z,24.8
2022-11-05T13:37:07.497Z,23.7
2022-11-05T13:48:34.280Z,22.1
2022-11-05T13:52:07.543Z,20.05
2022-11-05T13:57:07.411Z,21.2
2022-11-05T14:02:07.496Z,21.4
2022-11-05T14:07:07.341Z,21.6
2022-11-05T14:12:07.345Z,21.4
2022-11-05T14:17:07.346Z,21.6
2022-11-05T14:22:07.437Z,21.2
2022-11-05T14:27:07.371Z,21.2
2022-11-05T14:32:10.369Z,21.2
2022-11-05T14:37:07.368Z,20.6
2022-11-05T14:42:07.342Z,20.5
2022-11-05T15:27:18.033Z,23.1
2022-11-05T15:32:14.463Z,21.5
2022-11-05T15:37:20.334Z,23.1
2022-11-05T15:42:18.577Z,21.9
2022-11-05T15:47:18.608Z,20.7
2022-11-05T15:57:18.431Z,20.7
2022-11-05T16:02:19.014Z,20.7
2022-11-05T16:07:18.512Z,28.1
2022-11-05T16:12:18.564Z,20.7
2022-11-05T16:17:18.556Z,18.8
2022-11-05T16:22:18.560Z,18.8
2022-11-05T16:27:21.695Z,18.8
2022-11-05T16:32:33.203Z,18.8
2022-11-05T16:37:18.439Z,18.6
2022-11-05T16:42:18.465Z,16.4
2022-11-05T16:47:18.476Z,18.6
2022-11-05T16:52:18.471Z,18.6
2022-11-05T16:57:18.545Z,16.1
2022-11-05T17:02:18.517Z,16.1
2022-11-05T17:07:18.458Z,15.8
2022-11-05T17:12:18.503Z,14.5
2022-11-05T17:17:18.463Z,16
2022-11-05T17:22:18.512Z,14.4
2022-11-05T17:27:18.571Z,13.8
2022-11-05T17:32:18.491Z,13.8
2022-11-05T17:37:18.467Z,13.8
2022-11-05T17:42:18.484Z,13.9
2022-11-05T17:47:18.513Z,14
2022-11-05T17:52:18.488Z,14
2022-11-05T17:57:18.483Z,16.8
2022-11-05T18:02:18.632Z,18.3
2022-11-05T18:07:18.505Z,19.4
2022-11-05T18:12:18.457Z,19.6
2022-11-05T18:17:18.500Z,19.6
2022-11-05T18:22:18.506Z,20.1
2022-11-05T18:27:18.511Z,20.1
2022-11-05T18:32:18.467Z,20.8
2022-11-05T18:37:18.499Z,21.7
2022-11-05T18:42:18.605Z,28.5
2022-11-05T18:47:18.495Z,28.5
2022-11-05T18:52:18.507Z,28.5
2022-11-05T18:57:18.644Z,28.5
2022-11-05T19:02:18.611Z,21.5
2022-11-05T19:07:18.499Z,21.5
2022-11-05T19:12:18.498Z,20
2022-11-05T19:17:18.513Z,19.6
2022-11-05T19:22:18.521Z,20
2022-11-05T19:48:28.167Z,42.9
2022-11-05T19:52:18.657Z,39
2022-11-05T19:57:26.989Z,35.5
2022-11-05T20:02:18.664Z,35.3
2022-11-05T20:12:18.633Z,34.4
2022-11-05T20:17:36.177Z,32.05
2022-11-05T20:22:18.512Z,29.9
2022-11-05T20:27:18.561Z,30.9
2022-11-05T20:32:18.505Z,29.9
2022-11-05T20:37:18.476Z,30.9
2022-11-05T20:42:18.572Z,30.9
2022-11-05T20:47:18.483Z,30.9
2022-11-05T20:52:18.505Z,31.9
2022-11-05T20:57:18.516Z,33.8
2022-11-05T21:02:18.696Z,33.8
2022-11-05T21:07:25.662Z,34.1
2022-11-05T21:12:18.484Z,34.3
2022-11-05T21:17:28.375Z,35
2022-11-05T21:22:18.590Z,38.1
2022-11-05T21:27:18.748Z,42.7
2022-11-05T21:32:18.840Z,43.8
2022-11-05T21:37:18.671Z,43.8
2022-11-05T21:42:18.580Z,45.1
2022-11-05T21:47:18.521Z,45.1
2022-11-05T21:52:18.578Z,43.8
2022-11-05T21:57:18.763Z,41.7
2022-11-05T22:02:18.682Z,33.8
2022-11-05T22:12:18.574Z,33.7
2022-11-05T22:17:18.543Z,32.9
2022-11-05T22:22:18.519Z,32.9
2022-11-05T22:27:18.508Z,31
2022-11-05T22:32:18.519Z,31
2022-11-05T22:37:18.617Z,29.9
2022-11-05T22:42:18.561Z,29.9
2022-11-05T22:53:43.948Z,29.9
2022-11-05T22:57:22.495Z,31.9
2022-11-05T23:02:22.552Z,33.6
2022-11-05T23:07:27.760Z,62.2
2022-11-05T23:12:22.501Z,62.2
2022-11-05T23:17:22.441Z,62.2
2022-11-05T23:22:22.496Z,62.2
2022-11-05T23:27:22.392Z,40
2022-11-05T23:32:22.387Z,36.6
2022-11-05T23:37:22.447Z,36.2
2022-11-05T23:42:22.401Z,36.2
2022-11-05T23:47:22.381Z,36.2
2022-11-05T23:52:22.411Z,36.6
2022-11-05T23:57:22.381Z,37.5
